Time;durP1;ratioP1;P1;durP2;ratioP2;P2;SDS_P1;SDS_P2;PMS_P1;PMS_P2;Temp;Humidity;BMP_temperature;BMP_pressure;BME280_temperature;BME280_humidity;BME280_pressure;Samples;Min_cycle;Max_cycle;Signal;HPM_P1;HPM_P2
2022/03/06 00:00:25;;;;;;;12.23;9.05;;;4.70;99.90;;;;;;5060967;28;20076;-59
2022/03/06 00:02:52;;;;;;;13.02;8.43;;;4.70;99.90;;;;;;5063274;28;20125;-59
2022/03/06 00:05:19;;;;;;;10.90;7.93;;;4.70;99.90;;;;;;5062642;28;20090;-60
2022/03/06 00:07:46;;;;;;;13.05;9.75;;;4.70;99.90;;;;;;5063192;28;20530;-59
2022/03/06 00:10:12;;;;;;;12.70;8.18;;;4.60;99.90;;;;;;5062745;28;20102;-60
2022/03/06 00:12:39;;;;;;;13.73;9.40;;;4.70;99.90;;;;;;5063457;28;20131;-60
2022/03/06 00:15:06;;;;;;;12.85;8.55;;;4.60;99.90;;;;;;5060465;28;20491;-60
2022/03/06 00:17:33;;;;;;;13.07;9.10;;;4.60;99.90;;;;;;5063431;28;20087;-60
2022/03/06 00:20:02;;;;;;;13.68;8.60;;;4.50;99.90;;;;;;5062789;28;20106;-60
2022/03/06 00:22:29;;;;;;;14.20;9.50;;;4.60;99.90;;;;;;5063613;28;20044;-60
2022/03/06 00:24:57;;;;;;;11.80;8.10;;;4.60;99.90;;;;;;5061912;28;20144;-59
2022/03/06 00:27:24;;;;;;;13.73;8.95;;;4.60;99.90;;;;;;5062851;28;20151;-60
2022/03/06 00:29:51;;;;;;;11.13;8.02;;;4.50;99.90;;;;;;5060769;28;20136;-59
2022/03/06 00:32:18;;;;;;;12.48;8.68;;;4.50;99.90;;;;;;5063079;28;20076;-60
2022/03/06 00:34:46;;;;;;;11.60;8.55;;;4.50;99.90;;;;;;5062227;28;20136;-60
2022/03/06 00:37:13;;;;;;;13.80;9.00;;;4.50;99.90;;;;;;5063755;28;20110;-60
2022/03/06 00:39:39;;;;;;;10.30;7.63;;;4.50;99.90;;;;;;5062345;28;20159;-60
2022/03/06 00:42:09;;;;;;;12.30;8.20;;;4.50;99.90;;;;;;5062929;28;20491;-60
2022/03/06 00:44:36;;;;;;;11.57;8.55;;;4.50;99.90;;;;;;5042592;28;20178;-60
2022/03/06 00:47:04;;;;;;;7.70;6.47;;;4.50;99.90;;;;;;5045251;28;20049;-60
2022/03/06 00:49:31;;;;;;;11.57;7.60;;;4.50;99.90;;;;;;5043511;28;20135;-60
2022/03/06 00:51:58;;;;;;;9.98;6.90;;;4.50;99.90;;;;;;5059410;28;20083;-59
2022/03/06 00:54:25;;;;;;;9.88;7.00;;;4.50;99.90;;;;;;5059266;28;20536;-60
2022/03/06 00:56:51;;;;;;;9.85;7.38;;;4.60;99.90;;;;;;5059134;28;20072;-61
2022/03/06 00:59:18;;;;;;;10.73;7.03;;;4.60;99.90;;;;;;5052067;28;20044;-60
2022/03/06 01:01:45;;;;;;;10.63;7.70;;;4.50;99.90;;;;;;5066311;28;20684;-60
2022/03/06 01:04:12;;;;;;;11.73;7.40;;;4.50;99.90;;;;;;5044495;28;20135;-60
2022/03/06 01:06:39;;;;;;;8.80;6.63;;;4.50;99.90;;;;;;5046420;28;20551;-60
2022/03/06 01:09:06;;;;;;;11.88;7.35;;;4.50;99.90;;;;;;5046335;28;20136;-60
2022/03/06 01:11:35;;;;;;;13.20;7.57;;;4.40;99.90;;;;;;5045658;28;20132;-61
2022/03/06 01:14:03;;;;;;;9.48;7.00;;;4.40;99.90;;;;;;5059264;28;20059;-60
2022/03/06 01:16:29;;;;;;;10.70;6.68;;;4.40;99.90;;;;;;5041374;28;20048;-60
2022/03/06 01:18:57;;;;;;;10.13;6.82;;;4.40;99.90;;;;;;5050377;28;20498;-61
2022/03/06 01:21:24;;;;;;;12.73;7.88;;;4.40;99.90;;;;;;5047865;28;20530;-61
2022/03/06 01:23:51;;;;;;;10.48;7.07;;;4.30;99.90;;;;;;5065554;28;20056;-61
2022/03/06 01:26:18;;;;;;;7.15;6.15;;;4.30;99.90;;;;;;5049395;28;20099;-61
2022/03/06 01:28:45;;;;;;;7.13;5.72;;;4.30;99.90;;;;;;5045994;28;20059;-61
2022/03/06 01:31:12;;;;;;;8.05;5.85;;;4.30;99.90;;;;;;5043974;28;20052;-61
2022/03/06 01:33:38;;;;;;;7.35;5.45;;;4.30;99.90;;;;;;5055538;28;20695;-61
2022/03/06 01:36:05;;;;;;;10.45;5.63;;;4.30;99.90;;;;;;5063300;28;20068;-61
2022/03/06 01:38:32;;;;;;;8.07;6.30;;;4.20;99.90;;;;;;5030728;28;20575;-61
2022/03/06 01:40:59;;;;;;;6.43;5.10;;;4.20;99.90;;;;;;5049171;28;20132;-61
2022/03/06 01:43:25;;;;;;;8.02;5.28;;;4.20;99.90;;;;;;5063216;28;20139;-61
2022/03/06 01:45:52;;;;;;;7.65;5.90;;;4.20;99.90;;;;;;5051105;28;20140;-60
2022/03/06 01:48:19;;;;;;;8.80;5.95;;;4.20;99.90;;;;;;5063977;28;20051;-61
2022/03/06 01:50:46;;;;;;;12.85;5.40;;;4.20;99.90;;;;;;5039560;28;20068;-60
2022/03/06 01:53:12;;;;;;;6.93;5.35;;;4.20;99.90;;;;;;5062382;28;20528;-61
2022/03/06 01:55:39;;;;;;;6.65;5.18;;;4.20;99.90;;;;;;5059116;28;20147;-61
2022/03/06 01:58:07;;;;;;;9.68;6.22;;;4.20;99.90;;;;;;5045070;28;20099;-61
2022/03/06 02:00:37;;;;;;;8.50;6.05;;;4.20;99.90;;;;;;5034956;28;20119;-62
2022/03/06 02:03:04;;;;;;;10.20;5.60;;;4.10;99.90;;;;;;5064599;28;20075;-61
2022/03/06 02:05:31;;;;;;;8.80;5.68;;;4.20;99.90;;;;;;5064281;28;20048;-61
2022/03/06 02:07:58;;;;;;;7.53;4.43;;;4.10;99.90;;;;;;5060069;28;20469;-62
2022/03/06 02:10:25;;;;;;;7.00;5.05;;;4.10;99.90;;;;;;5057050;28;20158;-61
2022/03/06 02:12:52;;;;;;;7.25;4.75;;;4.10;99.90;;;;;;5060347;28;20594;-60
2022/03/06 02:15:19;;;;;;;7.13;5.00;;;4.10;99.90;;;;;;5061430;28;20087;-61
2022/03/06 02:17:46;;;;;;;8.98;5.82;;;4.10;99.90;;;;;;5060466;28;20083;-61
2022/03/06 02:20:17;;;;;;;8.48;5.95;;;4.10;99.90;;;;;;5063837;28;20041;-61
2022/03/06 02:22:45;;;;;;;6.20;4.72;;;4.10;99.90;;;;;;5053860;28;20076;-61
2022/03/06 02:25:15;;;;;;;8.60;4.85;;;4.10;99.90;;;;;;5058236;28;20518;-61
2022/03/06 02:27:42;;;;;;;7.18;4.88;;;4.10;99.90;;;;;;5060706;28;20716;-59
2022/03/06 02:30:11;;;;;;;6.68;5.28;;;4.20;99.90;;;;;;5043346;28;20083;-61
2022/03/06 02:32:38;;;;;;;6.75;4.78;;;4.20;99.90;;;;;;5055204;28;20483;-61
2022/03/06 02:35:06;;;;;;;6.47;4.90;;;4.20;99.90;;;;;;5055695;28;20080;-62
2022/03/06 02:37:33;;;;;;;7.93;5.13;;;4.20;99.90;;;;;;5046835;28;20119;-61
2022/03/06 02:40:00;;;;;;;6.78;4.82;;;4.20;99.90;;;;;;5064326;28;20607;-61
2022/03/06 02:42:31;;;;;;;7.80;4.95;;;4.20;99.90;;;;;;5064581;28;20462;-61
2022/03/06 02:44:58;;;;;;;8.35;5.32;;;4.20;99.90;;;;;;5061642;28;20606;-60
2022/03/06 02:47:26;;;;;;;7.03;4.93;;;4.20;99.90;;;;;;5065614;28;20140;-61
2022/03/06 02:49:52;;;;;;;7.65;4.93;;;4.20;99.90;;;;;;5065769;28;20121;-61
2022/03/06 02:52:19;;;;;;;7.18;5.35;;;4.20;99.90;;;;;;5063287;28;20037;-61
2022/03/06 02:54:46;;;;;;;9.10;4.78;;;4.20;99.90;;;;;;5062478;28;20303;-61
2022/03/06 02:57:13;;;;;;;8.18;4.90;;;4.20;99.90;;;;;;5064173;28;20708;-62
2022/03/06 02:59:40;;;;;;;5.38;3.95;;;4.20;99.90;;;;;;5064708;28;20048;-61
2022/03/06 03:02:07;;;;;;;7.60;4.15;;;4.20;99.90;;;;;;5064441;28;20075;-61
2022/03/06 03:04:34;;;;;;;8.20;4.63;;;4.20;99.90;;;;;;5059664;28;20063;-61
2022/03/06 03:07:00;;;;;;;6.50;4.68;;;4.20;99.90;;;;;;5041580;28;20068;-61
2022/03/06 03:09:27;;;;;;;5.85;4.07;;;4.20;99.90;;;;;;5065731;28;20091;-60
2022/03/06 03:11:55;;;;;;;6.63;4.00;;;4.20;99.90;;;;;;5065116;28;20084;-61
2022/03/06 03:14:21;;;;;;;5.40;3.80;;;4.20;99.90;;;;;;5064849;28;20080;-61
2022/03/06 03:16:48;;;;;;;6.68;4.45;;;4.20;99.90;;;;;;5063735;28;20087;-61
2022/03/06 03:19:15;;;;;;;7.03;4.40;;;4.20;99.90;;;;;;5065603;28;20049;-61
2022/03/06 03:21:42;;;;;;;5.60;4.18;;;4.20;99.90;;;;;;5065758;28;20079;-60
2022/03/06 03:24:08;;;;;;;8.65;4.38;;;4.10;99.90;;;;;;5065377;28;20092;-61
2022/03/06 03:26:35;;;;;;;6.55;4.00;;;4.10;99.90;;;;;;5064721;28;20056;-61
2022/03/06 03:29:02;;;;;;;5.93;3.95;;;4.10;99.90;;;;;;5065997;28;20087;-60
2022/03/06 03:31:29;;;;;;;8.30;3.92;;;4.10;99.90;;;;;;5063477;28;20167;-61
2022/03/06 03:33:57;;;;;;;7.53;4.57;;;4.10;99.90;;;;;;5065465;28;20126;-60
2022/03/06 03:36:24;;;;;;;6.00;4.13;;;4.10;99.90;;;;;;5065081;28;20083;-61
2022/03/06 03:38:50;;;;;;;5.55;3.25;;;4.10;99.90;;;;;;5065657;28;20091;-61
2022/03/06 03:41:17;;;;;;;6.57;4.28;;;4.00;99.90;;;;;;5064960;28;20087;-60
2022/03/06 03:43:44;;;;;;;5.72;3.80;;;4.00;99.90;;;;;;5047315;28;20051;-61
2022/03/06 03:46:11;;;;;;;6.35;3.90;;;4.00;99.90;;;;;;5063439;28;20087;-61
2022/03/06 03:48:38;;;;;;;5.28;3.10;;;4.00;99.90;;;;;;5065837;28;20051;-61
2022/03/06 03:51:04;;;;;;;6.53;3.20;;;4.00;99.90;;;;;;5064842;28;20603;-61
2022/03/06 03:53:31;;;;;;;5.22;3.30;;;4.00;99.90;;;;;;5065037;28;20109;-61
2022/03/06 03:55:58;;;;;;;4.78;3.63;;;4.00;99.90;;;;;;5064406;28;20592;-60
2022/03/06 03:58:24;;;;;;;6.72;3.50;;;4.00;99.90;;;;;;5065598;28;20467;-61
2022/03/06 04:00:54;;;;;;;6.88;3.70;;;4.00;99.90;;;;;;5063898;28;20447;-61
2022/03/06 04:03:22;;;;;;;4.55;3.45;;;4.00;99.90;;;;;;5065468;28;20045;-61
2022/03/06 04:05:48;;;;;;;5.95;3.92;;;4.00;99.90;;;;;;5064781;28;20086;-60
2022/03/06 04:08:15;;;;;;;6.38;3.28;;;4.10;99.90;;;;;;5065246;28;20048;-61
2022/03/06 04:10:42;;;;;;;6.53;3.40;;;4.10;99.90;;;;;;5065117;28;20458;-61
2022/03/06 04:13:09;;;;;;;5.88;3.05;;;4.10;99.90;;;;;;5047164;28;20091;-61
2022/03/06 04:15:35;;;;;;;6.63;3.65;;;4.10;99.90;;;;;;5063334;28;20104;-61
2022/03/06 04:18:03;;;;;;;4.75;3.42;;;4.10;99.90;;;;;;5065108;28;20053;-61
2022/03/06 04:20:30;;;;;;;5.05;2.88;;;4.10;99.90;;;;;;5064885;28;20048;-60
2022/03/06 04:22:57;;;;;;;4.53;3.03;;;4.10;99.90;;;;;;5065127;28;20080;-61
2022/03/06 04:25:24;;;;;;;5.65;3.08;;;4.10;99.90;;;;;;5029939;28;20059;-60
2022/03/06 04:27:51;;;;;;;4.93;2.90;;;4.10;99.90;;;;;;5069024;28;20090;-61
2022/03/06 04:30:17;;;;;;;5.03;2.78;;;4.10;99.90;;;;;;5067509;28;20135;-61
2022/03/06 04:32:44;;;;;;;5.38;2.50;;;4.10;99.90;;;;;;5068579;28;20560;-61
2022/03/06 04:35:11;;;;;;;5.90;2.72;;;4.10;99.90;;;;;;5068611;28;20300;-61
2022/03/06 04:37:38;;;;;;;8.00;2.92;;;4.00;99.90;;;;;;5069012;28;20048;-61
2022/03/06 04:40:05;;;;;;;7.25;2.78;;;4.10;99.90;;;;;;5067293;28;20076;-61
2022/03/06 04:42:32;;;;;;;4.57;2.78;;;4.10;99.90;;;;;;5068549;28;20086;-60
2022/03/06 04:44:58;;;;;;;6.10;2.95;;;4.10;99.90;;;;;;5067057;28;20052;-61
2022/03/06 04:47:25;;;;;;;6.20;2.40;;;4.10;99.90;;;;;;5068698;28;20083;-61
2022/03/06 04:49:52;;;;;;;4.35;2.45;;;4.10;99.90;;;;;;5067069;28;20087;-61
2022/03/06 04:52:19;;;;;;;5.22;2.58;;;4.20;99.90;;;;;;5067931;28;20110;-61
2022/03/06 04:54:45;;;;;;;5.30;1.88;;;4.20;99.90;;;;;;5049013;28;20140;-61
2022/03/06 04:57:12;;;;;;;4.68;2.40;;;4.20;99.90;;;;;;5065427;28;20554;-61
2022/03/06 04:59:39;;;;;;;4.88;2.50;;;4.20;99.90;;;;;;5062037;28;20111;-61
2022/03/06 05:02:06;;;;;;;4.72;2.25;;;4.20;99.90;;;;;;5054018;28;20072;-61
2022/03/06 05:04:33;;;;;;;3.67;2.17;;;4.30;99.90;;;;;;5066286;28;20556;-61
2022/03/06 05:06:59;;;;;;;3.13;1.52;;;4.30;99.90;;;;;;5041902;28;20460;-62
2022/03/06 05:09:26;;;;;;;4.93;2.08;;;4.30;99.90;;;;;;5061005;28;20076;-60
2022/03/06 05:11:53;;;;;;;2.97;1.80;;;4.30;99.90;;;;;;5061508;28;20133;-60
2022/03/06 05:14:20;;;;;;;4.32;1.85;;;4.30;99.90;;;;;;5063554;28;20071;-61
2022/03/06 05:16:46;;;;;;;4.82;2.33;;;4.40;99.90;;;;;;5054381;28;20488;-61
2022/03/06 05:19:13;;;;;;;2.70;1.73;;;4.30;99.90;;;;;;5066877;28;20132;-61
2022/03/06 05:21:40;;;;;;;4.72;1.92;;;4.40;99.90;;;;;;5056224;28;20153;-62
2022/03/06 05:24:06;;;;;;;4.03;1.60;;;4.40;99.90;;;;;;5062492;28;20083;-61
2022/03/06 05:26:33;;;;;;;3.42;1.98;;;4.40;99.90;;;;;;5065268;28;20164;-61
2022/03/06 05:29:00;;;;;;;2.53;1.67;;;4.40;99.90;;;;;;5066735;28;20071;-61
2022/03/06 05:31:27;;;;;;;6.45;1.70;;;4.40;99.90;;;;;;5065235;28;20132;-61
2022/03/06 05:33:54;;;;;;;4.38;2.03;;;4.40;99.90;;;;;;5056096;28;20053;-61
2022/03/06 05:36:22;;;;;;;3.33;2.10;;;4.40;99.90;;;;;;5047159;28;20072;-61
2022/03/06 05:38:49;;;;;;;3.75;2.28;;;4.40;99.90;;;;;;5046937;28;20065;-61
2022/03/06 05:41:16;;;;;;;3.10;2.45;;;4.40;99.90;;;;;;5065591;28;20086;-61
2022/03/06 05:43:42;;;;;;;2.47;1.50;;;4.40;99.90;;;;;;5066114;28;20481;-61
2022/03/06 05:46:09;;;;;;;3.25;1.55;;;4.40;99.90;;;;;;5064543;28;20080;-60
2022/03/06 05:48:36;;;;;;;4.18;1.73;;;4.40;99.90;;;;;;5066978;28;20037;-61
2022/03/06 05:51:03;;;;;;;5.47;2.35;;;4.40;99.90;;;;;;5065456;28;20143;-59
2022/03/06 05:53:29;;;;;;;3.22;1.90;;;4.40;99.90;;;;;;5048399;28;20048;-60
2022/03/06 05:55:56;;;;;;;4.38;1.98;;;4.40;99.90;;;;;;5065269;28;20055;-60
2022/03/06 05:58:23;;;;;;;4.28;1.92;;;4.40;99.90;;;;;;5066492;28;20079;-60
2022/03/06 06:00:50;;;;;;;5.32;2.20;;;4.40;99.90;;;;;;5064164;28;20147;-60
2022/03/06 06:03:17;;;;;;;4.32;2.08;;;4.40;99.90;;;;;;5063747;28;20052;-59
2022/03/06 06:05:44;;;;;;;4.25;2.50;;;4.40;99.90;;;;;;5063391;28;20048;-60
2022/03/06 06:08:10;;;;;;;4.45;2.20;;;4.30;99.90;;;;;;5064309;28;20068;-60
2022/03/06 06:10:37;;;;;;;4.20;2.08;;;4.30;99.90;;;;;;5050998;28;20143;-60
2022/03/06 06:13:04;;;;;;;5.05;1.95;;;4.30;99.90;;;;;;5051616;28;20083;-61
2022/03/06 06:15:31;;;;;;;4.65;2.20;;;4.30;99.90;;;;;;5057838;28;20571;-61
2022/03/06 06:17:58;;;;;;;4.40;2.38;;;4.40;99.90;;;;;;5045944;28;20098;-59
2022/03/06 06:20:24;;;;;;;2.67;1.55;;;4.40;99.90;;;;;;5044797;28;20469;-60
2022/03/06 06:22:53;;;;;;;3.17;1.60;;;4.40;99.90;;;;;;5049884;28;20075;-60
2022/03/06 06:25:20;;;;;;;6.10;2.42;;;4.30;99.90;;;;;;5062885;28;20917;-59
2022/03/06 06:27:46;;;;;;;4.72;1.92;;;4.30;99.90;;;;;;5063530;28;20044;-60
2022/03/06 06:30:13;;;;;;;3.75;1.52;;;4.30;99.90;;;;;;5061549;28;20183;-60
2022/03/06 06:32:40;;;;;;;6.40;2.75;;;4.20;99.90;;;;;;5063310;28;20195;-60
2022/03/06 06:35:07;;;;;;;3.63;1.83;;;4.20;99.90;;;;;;5062816;28;20075;-60
2022/03/06 06:37:34;;;;;;;4.35;1.80;;;4.20;99.90;;;;;;5063223;28;20060;-60
2022/03/06 06:40:01;;;;;;;4.63;1.92;;;4.20;99.90;;;;;;5062476;28;20574;-60
2022/03/06 06:42:28;;;;;;;5.10;1.85;;;4.10;99.90;;;;;;5062986;28;20135;-60
2022/03/06 06:44:54;;;;;;;7.88;2.15;;;4.10;99.90;;;;;;5061586;28;20414;-60
2022/03/06 06:47:21;;;;;;;4.55;2.22;;;4.10;99.90;;;;;;5045751;28;20044;-60
2022/03/06 06:49:48;;;;;;;4.00;1.98;;;4.10;99.90;;;;;;5062085;28;20713;-60
2022/03/06 06:52:15;;;;;;;6.05;2.72;;;4.10;99.90;;;;;;5062907;28;20080;-59
2022/03/06 06:54:41;;;;;;;5.35;2.05;;;4.10;99.90;;;;;;5062348;28;20080;-60
2022/03/06 06:57:08;;;;;;;5.05;2.17;;;4.10;99.90;;;;;;5062406;28;20509;-60
2022/03/06 06:59:35;;;;;;;5.32;2.35;;;4.10;99.90;;;;;;5062552;28;20344;-60
2022/03/06 07:02:02;;;;;;;4.95;2.90;;;4.10;99.90;;;;;;5061786;28;20123;-60
2022/03/06 07:04:29;;;;;;;4.45;2.10;;;4.10;99.90;;;;;;5060861;28;20048;-59
2022/03/06 07:06:56;;;;;;;3.83;2.00;;;4.10;99.90;;;;;;5062206;28;20570;-59
2022/03/06 07:09:22;;;;;;;2.78;1.77;;;4.20;99.90;;;;;;5051056;28;20060;-60
2022/03/06 07:11:49;;;;;;;4.97;2.28;;;4.20;99.90;;;;;;5047854;28;20140;-58
2022/03/06 07:14:16;;;;;;;4.25;2.25;;;4.20;99.90;;;;;;5055365;28;20055;-61
2022/03/06 07:16:45;;;;;;;5.38;2.58;;;4.30;99.90;;;;;;5048417;28;20102;-60
2022/03/06 07:19:12;;;;;;;8.27;3.67;;;4.30;99.90;;;;;;5053071;28;20131;-59
2022/03/06 07:21:39;;;;;;;5.97;3.95;;;4.30;99.90;;;;;;5024691;28;20083;-60
2022/03/06 07:24:06;;;;;;;5.53;2.75;;;4.40;99.90;;;;;;5059140;28;20529;-60
2022/03/06 07:26:33;;;;;;;4.30;2.72;;;4.40;99.90;;;;;;5057617;28;20135;-60
2022/03/06 07:29:00;;;;;;;3.92;2.65;;;4.40;99.90;;;;;;5059456;28;20076;-58
2022/03/06 07:31:26;;;;;;;4.47;2.60;;;4.50;99.90;;;;;;5058012;28;20140;-60
2022/03/06 07:33:53;;;;;;;4.88;2.38;;;4.50;99.90;;;;;;5058228;28;20164;-60
2022/03/06 07:36:20;;;;;;;3.63;2.08;;;4.50;99.90;;;;;;5040076;28;20135;-59
2022/03/06 07:38:47;;;;;;;4.32;1.92;;;4.50;99.90;;;;;;5040400;28;20135;-60
2022/03/06 07:41:14;;;;;;;5.30;2.20;;;4.50;99.90;;;;;;5039655;28;20136;-59
2022/03/06 07:43:40;;;;;;;3.97;2.30;;;4.50;99.90;;;;;;5051416;28;20172;-60
2022/03/06 07:46:07;;;;;;;4.82;2.60;;;4.50;99.90;;;;;;5056363;28;20045;-60
2022/03/06 07:48:34;;;;;;;7.00;2.40;;;4.50;99.90;;;;;;5048745;28;20097;-59
2022/03/06 07:51:01;;;;;;;4.57;2.13;;;4.50;99.90;;;;;;5057273;28;20044;-60
2022/03/06 07:53:28;;;;;;;4.90;2.85;;;4.60;99.90;;;;;;5048893;28;20100;-60
2022/03/06 07:55:55;;;;;;;4.15;2.25;;;4.60;99.90;;;;;;5054513;28;20735;-60
2022/03/06 07:58:22;;;;;;;4.72;2.55;;;4.70;99.90;;;;;;5031596;28;20542;-61
2022/03/06 08:00:48;;;;;;;3.28;2.38;;;4.70;99.90;;;;;;5048404;28;20054;-61
2022/03/06 08:03:15;;;;;;;3.67;2.33;;;4.80;99.90;;;;;;5054942;28;20049;-60
2022/03/06 08:05:43;;;;;;;4.57;2.60;;;4.80;99.90;;;;;;5055655;28;20079;-60
2022/03/06 08:08:10;;;;;;;3.95;2.13;;;4.80;99.90;;;;;;5042520;28;20101;-59
2022/03/06 08:10:38;;;;;;;5.07;2.38;;;4.80;99.90;;;;;;5051280;28;20068;-61
2022/03/06 08:13:04;;;;;;;4.45;2.78;;;4.90;99.90;;;;;;5059263;28;20501;-60
2022/03/06 08:15:31;;;;;;;6.22;3.13;;;4.80;99.90;;;;;;5061160;28;20114;-60
2022/03/06 08:17:58;;;;;;;5.25;3.10;;;4.90;99.90;;;;;;5046205;28;20045;-60
2022/03/06 08:20:25;;;;;;;5.50;3.20;;;4.90;99.90;;;;;;5064027;28;20076;-60
2022/03/06 08:22:52;;;;;;;7.63;2.97;;;4.90;99.90;;;;;;5062753;28;20096;-60
2022/03/06 08:25:20;;;;;;;6.90;3.35;;;5.00;99.90;;;;;;5045068;28;20059;-59
2022/03/06 08:27:47;;;;;;;6.18;3.40;;;4.90;99.90;;;;;;5053805;28;20402;-61
2022/03/06 08:30:14;;;;;;;7.20;4.03;;;4.90;99.90;;;;;;5049649;28;20048;-60
2022/03/06 08:32:41;;;;;;;7.50;2.75;;;4.80;99.90;;;;;;5061232;28;20139;-60
2022/03/06 08:35:08;;;;;;;5.03;2.38;;;4.80;99.90;;;;;;5061624;28;20407;-61
2022/03/06 08:37:36;;;;;;;4.07;2.55;;;4.80;99.90;;;;;;5058574;28;20475;-60
2022/03/06 08:40:03;;;;;;;7.75;2.85;;;4.90;99.90;;;;;;5060126;28;20079;-61
2022/03/06 08:42:30;;;;;;;4.50;2.53;;;4.90;99.90;;;;;;5061472;28;20075;-61
2022/03/06 08:44:57;;;;;;;4.70;2.53;;;4.90;99.90;;;;;;5059908;28;20132;-60
2022/03/06 08:47:24;;;;;;;5.45;2.95;;;5.00;99.90;;;;;;5061221;28;20419;-61
2022/03/06 08:49:50;;;;;;;6.82;2.90;;;5.10;99.90;;;;;;5059717;28;20144;-61
2022/03/06 08:52:17;;;;;;;4.57;2.60;;;5.20;99.90;;;;;;5047980;28;20131;-61
2022/03/06 08:54:44;;;;;;;5.78;3.08;;;5.20;99.90;;;;;;5059360;28;20482;-61
2022/03/06 08:57:10;;;;;;;4.45;2.80;;;5.30;99.90;;;;;;5023262;28;20059;-60
2022/03/06 08:59:37;;;;;;;4.43;2.38;;;5.40;99.90;;;;;;5053621;28;20134;-61
2022/03/06 09:02:04;;;;;;;6.13;2.88;;;5.40;99.90;;;;;;5039418;28;20504;-60
2022/03/06 09:04:33;;;;;;;5.95;2.78;;;5.40;99.90;;;;;;5057832;28;20049;-61
2022/03/06 09:07:00;;;;;;;3.75;2.35;;;5.40;99.90;;;;;;5056607;28;20059;-61
2022/03/06 09:09:26;;;;;;;5.05;2.97;;;5.50;99.90;;;;;;5053598;28;20049;-61
2022/03/06 09:11:53;;;;;;;7.63;3.33;;;5.50;99.90;;;;;;5049973;28;20485;-61
2022/03/06 09:14:20;;;;;;;4.32;2.60;;;5.60;99.90;;;;;;5056441;28;20135;-61
2022/03/06 09:16:47;;;;;;;6.13;2.70;;;5.70;99.90;;;;;;5056772;28;20432;-61
2022/03/06 09:19:13;;;;;;;3.95;2.25;;;5.70;99.90;;;;;;5053407;28;20368;-61
2022/03/06 09:21:43;;;;;;;4.53;2.60;;;5.80;99.90;;;;;;5060368;28;20045;-61
2022/03/06 09:24:10;;;;;;;5.20;2.85;;;5.90;99.90;;;;;;5050599;28;20139;-60
2022/03/06 09:26:37;;;;;;;5.13;2.60;;;6.00;99.90;;;;;;5052925;28;20159;-61
2022/03/06 09:29:05;;;;;;;4.07;2.42;;;6.00;99.90;;;;;;5057086;28;20141;-61
2022/03/06 09:31:32;;;;;;;5.47;2.70;;;6.00;99.90;;;;;;5049357;28;20128;-60
2022/03/06 09:33:59;;;;;;;4.07;1.83;;;6.00;99.90;;;;;;5055545;28;20056;-61
2022/03/06 09:36:44;;;;;;;5.97;2.45;;;6.10;99.90;;;;;;5048638;28;20044;-61
2022/03/06 09:39:14;;;;;;;4.90;2.10;;;6.20;99.90;;;;;;5051842;28;20141;-61
2022/03/06 09:41:41;;;;;;;3.58;2.40;;;6.30;99.90;;;;;;5049975;28;20083;-61
2022/03/06 09:44:09;;;;;;;4.68;2.72;;;6.30;99.90;;;;;;5054675;28;20135;-61
2022/03/06 09:46:36;;;;;;;3.55;2.42;;;6.30;99.90;;;;;;5049546;28;20055;-61
2022/03/06 09:49:04;;;;;;;6.40;3.10;;;6.40;99.90;;;;;;5051610;28;20163;-61
2022/03/06 09:51:41;;;;;;;4.93;3.50;;;6.30;99.90;;;;;;5050218;28;20056;-62
2022/03/06 09:54:09;;;;;;;3.72;2.40;;;6.30;99.90;;;;;;5053843;28;20430;-61
2022/03/06 09:56:36;;;;;;;5.43;2.70;;;6.40;99.90;;;;;;5046519;28;20057;-61
2022/03/06 09:59:02;;;;;;;4.93;3.28;;;6.40;99.90;;;;;;5035110;28;20095;-61
2022/03/06 10:01:29;;;;;;;3.78;2.40;;;6.40;99.90;;;;;;5049821;28;20557;-61
2022/03/06 10:04:24;;;;;;;3.85;2.80;;;6.50;99.90;;;;;;5061108;28;20232;-61
2022/03/06 10:06:58;;;;;;;4.55;2.40;;;6.60;99.90;;;;;;5054901;28;20172;-61
2022/03/06 10:09:25;;;;;;;5.70;2.40;;;6.60;99.90;;;;;;5061480;28;20128;-61
2022/03/06 10:11:54;;;;;;;6.15;2.47;;;6.80;99.90;;;;;;5061218;28;20827;-61
2022/03/06 10:14:40;;;;;;;7.95;2.95;;;6.80;99.90;;;;;;5044279;28;20102;-61
2022/03/06 10:17:28;;;;;;;7.75;2.67;;;6.80;99.90;;;;;;5060659;28;20048;-61
2022/03/06 10:20:10;;;;;;;3.80;2.42;;;6.80;99.90;;;;;;5061714;28;20125;-61
2022/03/06 10:22:39;;;;;;;7.38;2.55;;;6.80;99.90;;;;;;5062000;28;20136;-61
2022/03/06 10:25:10;;;;;;;4.20;2.20;;;6.60;99.90;;;;;;5060615;28;20135;-61
2022/03/06 10:27:57;;;;;;;3.58;2.38;;;6.60;99.90;;;;;;5043849;28;20061;-61
2022/03/06 10:30:33;;;;;;;4.40;2.10;;;6.50;99.90;;;;;;5060557;28;20410;-63
2022/03/06 10:33:19;;;;;;;3.58;1.92;;;6.50;99.90;;;;;;5059079;28;20124;-61
2022/03/06 10:35:48;;;;;;;5.82;2.67;;;6.50;99.90;;;;;;5052820;28;20080;-61
2022/03/06 10:38:28;;;;;;;5.18;2.40;;;6.30;99.90;;;;;;5059183;28;20139;-60
2022/03/06 10:40:56;;;;;;;5.22;2.28;;;6.30;99.90;;;;;;5037614;28;20135;-61
2022/03/06 10:43:24;;;;;;;4.65;2.40;;;6.30;99.90;;;;;;5047116;28;20471;-61
2022/03/06 10:46:05;;;;;;;4.97;2.40;;;6.30;99.90;;;;;;5055447;28;20110;-61
2022/03/06 10:48:32;;;;;;;3.92;2.17;;;6.50;99.90;;;;;;5034179;28;20125;-61
2022/03/06 10:51:03;;;;;;;4.13;2.60;;;6.60;99.90;;;;;;5052154;28;20345;-61
2022/03/06 10:53:29;;;;;;;4.72;2.60;;;6.80;99.90;;;;;;5050744;28;20423;-60
2022/03/06 10:56:05;;;;;;;2.72;1.98;;;7.00;99.90;;;;;;5036750;28;20076;-61
2022/03/06 10:58:32;;;;;;;3.78;2.45;;;7.20;99.90;;;;;;5061199;28;20484;-61
2022/03/06 11:01:19;;;;;;;6.60;2.92;;;7.20;99.90;;;;;;5044589;28;20051;-61
2022/03/06 11:03:46;;;;;;;5.55;2.60;;;7.30;99.90;;;;;;5043233;28;20170;-61
2022/03/06 11:06:15;;;;;;;3.03;2.40;;;7.20;99.90;;;;;;5053452;28;20068;-61
2022/03/06 11:08:42;;;;;;;4.35;2.33;;;7.10;99.90;;;;;;5055765;28;20374;-61
2022/03/06 11:11:09;;;;;;;3.58;2.17;;;7.20;99.90;;;;;;5016629;28;20076;-61
2022/03/06 11:13:38;;;;;;;2.67;1.98;;;7.30;99.90;;;;;;5054237;28;20072;-60
2022/03/06 11:16:05;;;;;;;4.00;2.55;;;7.40;99.90;;;;;;5046922;28;20072;-61
2022/03/06 11:18:32;;;;;;;4.50;2.83;;;7.40;99.90;;;;;;5052464;28;20053;-61
2022/03/06 11:21:00;;;;;;;4.05;2.38;;;7.50;99.90;;;;;;5059250;28;20049;-61
2022/03/06 11:23:47;;;;;;;3.78;2.30;;;7.50;99.90;;;;;;5013701;28;20844;-61
2022/03/06 11:26:16;;;;;;;3.47;2.08;;;7.60;99.90;;;;;;5027937;28;20079;-61
2022/03/06 11:28:59;;;;;;;6.03;2.40;;;7.70;99.90;;;;;;5054043;28;20145;-60
2022/03/06 11:31:28;;;;;;;3.17;2.08;;;7.80;99.90;;;;;;5039435;28;20558;-61
2022/03/06 11:34:03;;;;;;;5.95;2.28;;;7.80;99.90;;;;;;5028070;28;20504;-61
2022/03/06 11:36:47;;;;;;;4.50;2.00;;;7.80;99.90;;;;;;5034549;28;20628;-61
2022/03/06 11:39:29;;;;;;;3.28;2.22;;;7.90;99.90;;;;;;5058261;28;20473;-61
2022/03/06 11:42:00;;;;;;;4.50;2.00;;;7.90;99.90;;;;;;5060501;28;20147;-60
2022/03/06 11:44:48;;;;;;;2.25;1.60;;;8.00;99.90;;;;;;5060703;28;20141;-61
2022/03/06 11:47:39;;;;;;;3.70;1.95;;;7.90;99.90;;;;;;5059334;28;20056;-61
2022/03/06 11:50:09;;;;;;;5.35;2.63;;;7.80;99.90;;;;;;5060336;28;20052;-60
2022/03/06 11:52:41;;;;;;;5.10;1.67;;;7.70;99.90;;;;;;5043022;28;20068;-61
2022/03/06 11:55:33;;;;;;;4.68;1.83;;;7.80;99.90;;;;;;5055602;28;20068;-60
2022/03/06 11:58:00;;;;;;;5.60;2.13;;;7.80;99.90;;;;;;5046848;28;20247;-61
2022/03/06 12:00:30;;;;;;;2.95;1.63;;;7.90;99.90;;;;;;5028749;28;20136;-61
2022/03/06 12:02:58;;;;;;;3.47;1.67;;;8.00;99.90;;;;;;5050710;28;20056;-61
2022/03/06 12:05:47;;;;;;;5.75;2.10;;;8.20;99.90;;;;;;5038426;28;20131;-60
2022/03/06 12:08:16;;;;;;;6.05;1.92;;;8.10;99.90;;;;;;5055694;28;20143;-61
2022/03/06 12:10:44;;;;;;;4.65;1.70;;;7.80;99.90;;;;;;5059904;28;20049;-61
2022/03/06 12:13:21;;;;;;;3.03;1.40;;;7.70;99.90;;;;;;5053832;28;20447;-60
2022/03/06 12:16:05;;;;;;;2.42;1.38;;;7.80;99.90;;;;;;5059542;28;20593;-61
2022/03/06 12:18:32;;;;;;;4.40;1.90;;;7.80;99.90;;;;;;5051331;28;20056;-60
2022/03/06 12:20:59;;;;;;;4.07;1.50;;;8.20;99.90;;;;;;5035878;28;20041;-61
2022/03/06 12:23:28;;;;;;;2.53;1.67;;;8.40;99.90;;;;;;5052161;28;20052;-61
2022/03/06 12:25:56;;;;;;;2.50;1.35;;;8.50;99.90;;;;;;5057536;28;20056;-60
2022/03/06 12:28:25;;;;;;;2.78;1.50;;;8.40;99.90;;;;;;5050375;28;20056;-61
2022/03/06 12:30:53;;;;;;;3.20;1.70;;;8.60;99.90;;;;;;5056493;28;20049;-60
2022/03/06 12:33:38;;;;;;;3.88;1.90;;;8.50;99.90;;;;;;5056565;28;20041;-61
2022/03/06 12:36:13;;;;;;;2.95;1.70;;;8.80;99.90;;;;;;5026707;28;20131;-61
2022/03/06 12:38:40;;;;;;;2.53;1.80;;;9.40;99.90;;;;;;5051013;28;20088;-61
2022/03/06 12:41:07;;;;;;;2.60;1.40;;;9.60;99.90;;;;;;5053790;28;20045;-61
2022/03/06 12:43:34;;;;;;;2.17;1.52;;;9.70;99.90;;;;;;5056074;28;20114;-61
2022/03/06 12:46:01;;;;;;;2.15;1.45;;;9.90;99.90;;;;;;5039412;28;20040;-61
2022/03/06 12:48:28;;;;;;;2.30;1.42;;;10.00;99.90;;;;;;5048740;28;20535;-61
2022/03/06 12:50:55;;;;;;;2.30;1.27;;;10.20;99.90;;;;;;5059636;28;20450;-61
2022/03/06 12:53:22;;;;;;;3.83;1.83;;;10.50;99.90;;;;;;5052475;28;20552;-61
2022/03/06 12:55:56;;;;;;;2.40;1.50;;;10.70;99.90;;;;;;5060845;28;20164;-62
2022/03/06 12:58:35;;;;;;;3.20;1.60;;;10.40;99.90;;;;;;5053486;28;20053;-61
2022/03/06 13:01:09;;;;;;;4.10;1.52;;;10.10;99.90;;;;;;5038326;28;20067;-61